createdAt,value
2022-10-11T00:01:24.224Z,14.30
2022-10-11T00:03:50.948Z,14.30
2022-10-11T00:06:17.627Z,14.30
2022-10-11T00:08:44.294Z,14.20
2022-10-11T00:11:11.506Z,14.20
2022-10-11T00:13:38.242Z,14.20
2022-10-11T00:16:11.814Z,14.10
2022-10-11T00:18:39.480Z,14.10
2022-10-11T00:21:09.268Z,14.00
2022-10-11T00:23:36.363Z,13.90
2022-10-11T00:26:05.801Z,13.90
2022-10-11T00:28:33.118Z,13.90
2022-10-11T00:31:00.071Z,13.90
2022-10-11T00:33:26.812Z,13.90
2022-10-11T00:35:53.499Z,13.90
2022-10-11T00:38:20.309Z,13.90
2022-10-11T00:40:47.057Z,13.90
2022-10-11T00:43:19.534Z,13.90
2022-10-11T00:45:58.424Z,13.90
2022-10-11T00:48:29.593Z,13.90
2022-10-11T00:50:59.083Z,13.90
2022-10-11T00:53:26.471Z,13.90
2022-10-11T00:55:59.335Z,13.90
2022-10-11T00:58:26.691Z,13.90
2022-10-11T01:00:54.215Z,14.00
2022-10-11T01:03:21.833Z,14.00
2022-10-11T01:05:48.803Z,14.00
2022-10-11T01:08:15.534Z,14.00
2022-10-11T01:10:42.231Z,14.00
2022-10-11T01:13:44.211Z,13.90
2022-10-11T01:16:19.740Z,13.90
2022-10-11T01:19:12.384Z,13.90
2022-10-11T01:21:53.417Z,13.80
2022-10-11T01:24:38.719Z,13.80
2022-10-11T01:27:41.981Z,13.80
2022-10-11T01:30:29.073Z,13.80
2022-10-11T01:33:21.240Z,13.80
2022-10-11T01:36:04.179Z,13.80
2022-10-11T01:38:47.109Z,13.80
2022-10-11T01:41:28.739Z,13.80
2022-10-11T01:44:00.513Z,13.80
2022-10-11T01:46:28.731Z,13.80
2022-10-11T01:48:57.961Z,13.80
2022-10-11T01:51:33.378Z,13.80
2022-10-11T01:54:12.738Z,13.80
2022-10-11T01:57:00.451Z,13.80
2022-10-11T01:59:39.074Z,13.70
2022-10-11T02:02:37.011Z,13.70
2022-10-11T02:05:09.460Z,13.70
2022-10-11T02:07:51.735Z,13.70
2022-10-11T02:10:27.800Z,13.70
2022-10-11T02:13:00.670Z,13.60
2022-10-11T02:15:29.160Z,13.60
2022-10-11T02:17:57.927Z,13.60
2022-10-11T02:20:26.713Z,13.60
2022-10-11T02:22:58.863Z,13.60
2022-10-11T02:25:27.361Z,13.50
2022-10-11T02:27:56.746Z,13.50
2022-10-11T02:30:23.575Z,13.50
2022-10-11T02:32:51.843Z,13.50
2022-10-11T02:35:19.492Z,13.50
2022-10-11T02:37:53.861Z,13.50
2022-10-11T02:40:27.766Z,13.40
2022-10-11T02:43:12.535Z,13.40
2022-10-11T02:45:45.072Z,13.40
2022-10-11T02:48:12.401Z,13.40
2022-10-11T02:50:40.306Z,13.50
2022-10-11T02:53:07.695Z,13.30
2022-10-11T02:55:34.944Z,13.30
2022-10-11T02:58:01.900Z,13.30
2022-10-11T03:00:28.793Z,13.30
2022-10-11T03:02:55.590Z,13.30
2022-10-11T03:05:22.241Z,13.30
2022-10-11T03:07:48.900Z,13.30
2022-10-11T03:10:15.642Z,13.30
2022-10-11T03:12:42.818Z,13.30
2022-10-11T03:15:09.955Z,13.30
2022-10-11T03:17:37.431Z,13.20
2022-10-11T03:20:05.940Z,13.20
2022-10-11T03:22:32.614Z,13.30
2022-10-11T03:25:03.635Z,13.70
2022-10-11T03:27:31.391Z,13.20
2022-10-11T03:29:58.154Z,13.20
2022-10-11T03:32:25.184Z,13.10
2022-10-11T03:34:51.889Z,13.20
2022-10-11T03:37:18.881Z,13.20
2022-10-11T03:39:45.879Z,13.20
2022-10-11T03:42:13.470Z,13.10
2022-10-11T03:44:41.606Z,13.20
2022-10-11T03:47:08.904Z,13.20
2022-10-11T03:49:38.828Z,13.20
2022-10-11T03:52:09.454Z,13.10
2022-10-11T03:54:36.234Z,13.00
2022-10-11T03:57:03.332Z,13.00
2022-10-11T03:59:30.078Z,13.00
2022-10-11T04:01:57.148Z,13.00
2022-10-11T04:04:24.077Z,13.00
2022-10-11T04:06:50.768Z,13.00
2022-10-11T04:09:17.591Z,13.00
2022-10-11T04:11:44.271Z,13.00
2022-10-11T04:14:11.044Z,13.00
2022-10-11T04:16:38.740Z,13.00
2022-10-11T04:19:05.925Z,13.00
2022-10-11T04:21:32.909Z,13.00
2022-10-11T04:23:59.833Z,13.00
2022-10-11T04:26:26.954Z,13.00
2022-10-11T04:28:53.742Z,13.00
2022-10-11T04:31:20.474Z,13.00
2022-10-11T04:33:47.449Z,13.00
2022-10-11T04:36:14.189Z,13.20
2022-10-11T04:38:40.917Z,13.10
2022-10-11T04:41:13.688Z,13.10
2022-10-11T04:43:40.396Z,13.10
2022-10-11T04:46:08.087Z,13.10
2022-10-11T04:48:35.072Z,13.10
2022-10-11T04:51:01.787Z,13.00
2022-10-11T04:53:28.606Z,13.00
2022-10-11T04:56:06.502Z,13.00
2022-10-11T04:58:34.942Z,12.90
2022-10-11T05:01:01.696Z,12.90
2022-10-11T05:03:28.410Z,12.90
2022-10-11T05:05:55.142Z,12.90
2022-10-11T05:08:25.075Z,12.90
2022-10-11T05:10:56.343Z,12.90
2022-10-11T05:13:23.186Z,12.90
2022-10-11T05:15:50.017Z,12.80
2022-10-11T05:18:16.863Z,12.90
2022-10-11T05:20:43.596Z,12.80
2022-10-11T05:23:10.286Z,12.80
2022-10-11T05:25:37.100Z,12.80
2022-10-11T05:28:04.115Z,12.80
2022-10-11T05:30:30.809Z,12.80
2022-10-11T05:32:57.501Z,12.80
2022-10-11T05:35:24.385Z,12.80
2022-10-11T05:37:51.127Z,12.90
2022-10-11T05:40:17.953Z,12.90
2022-10-11T05:42:44.729Z,12.90
2022-10-11T05:45:11.613Z,12.80
2022-10-11T05:47:38.356Z,12.80
2022-10-11T05:50:05.631Z,12.80
2022-10-11T05:52:32.304Z,12.80
2022-10-11T05:54:59.044Z,12.80
2022-10-11T05:57:25.772Z,12.80
2022-10-11T05:59:52.513Z,12.90
2022-10-11T06:02:19.321Z,12.80
2022-10-11T06:04:46.068Z,12.80
2022-10-11T06:07:12.743Z,12.80
2022-10-11T06:09:39.718Z,12.70
2022-10-11T06:12:06.629Z,12.70
2022-10-11T06:14:33.379Z,12.60
2022-10-11T06:17:00.052Z,12.60
2022-10-11T06:19:26.725Z,12.60
2022-10-11T06:21:53.473Z,12.60
2022-10-11T06:24:20.235Z,12.60
2022-10-11T06:26:49.059Z,12.50
2022-10-11T06:29:15.769Z,12.60
2022-10-11T06:31:42.489Z,12.60
2022-10-11T06:34:09.482Z,12.60
2022-10-11T06:36:36.395Z,12.60
2022-10-11T06:39:03.236Z,12.60
2022-10-11T06:41:30.642Z,12.60
2022-10-11T06:43:57.837Z,12.60
2022-10-11T06:46:26.577Z,12.60
2022-10-11T06:48:54.013Z,12.60
2022-10-11T06:51:21.978Z,12.50
2022-10-11T06:53:50.428Z,12.60
2022-10-11T06:56:17.180Z,12.60
2022-10-11T06:58:43.969Z,12.60
2022-10-11T07:01:13.910Z,12.50
2022-10-11T07:03:40.685Z,12.50
2022-10-11T07:06:12.740Z,12.50
2022-10-11T07:08:39.648Z,12.50
2022-10-11T07:11:08.956Z,12.50
2022-10-11T07:13:36.043Z,12.50
2022-10-11T07:16:04.825Z,12.60
2022-10-11T07:18:32.192Z,12.70
2022-10-11T07:21:02.044Z,12.70
2022-10-11T07:23:28.717Z,12.70
2022-10-11T07:25:55.591Z,12.70
2022-10-11T07:28:23.348Z,12.70
2022-10-11T07:30:50.674Z,12.60
2022-10-11T07:33:17.657Z,12.60
2022-10-11T07:35:48.214Z,12.60
2022-10-11T07:38:15.738Z,12.60
2022-10-11T07:40:44.441Z,12.60
2022-10-11T07:43:12.298Z,12.50
2022-10-11T07:45:40.626Z,12.50
2022-10-11T07:48:07.374Z,12.50
2022-10-11T07:50:34.805Z,12.60
2022-10-11T07:53:01.479Z,12.60
2022-10-11T07:55:29.875Z,12.60
2022-10-11T07:57:57.112Z,12.70
2022-10-11T08:00:24.473Z,12.70
2022-10-11T08:02:51.168Z,12.60
2022-10-11T08:05:17.954Z,12.60
2022-10-11T08:07:44.775Z,12.60
2022-10-11T08:10:11.580Z,12.60
2022-10-11T08:12:38.788Z,12.60
2022-10-11T08:15:05.934Z,12.70
2022-10-11T08:17:32.616Z,12.70
2022-10-11T08:19:59.508Z,12.70
2022-10-11T08:22:26.267Z,12.70
2022-10-11T08:24:52.947Z,12.70
2022-10-11T08:27:19.870Z,12.70
2022-10-11T08:29:46.525Z,12.70
2022-10-11T08:32:13.260Z,12.70
2022-10-11T08:34:39.981Z,12.70
2022-10-11T08:37:06.741Z,12.70
2022-10-11T08:39:33.484Z,12.70
2022-10-11T08:42:05.907Z,12.90
2022-10-11T08:45:05.592Z,12.60
2022-10-11T08:47:32.515Z,12.60
2022-10-11T08:49:59.916Z,12.60
2022-10-11T08:52:34.956Z,12.60
2022-10-11T08:55:07.973Z,12.60
2022-10-11T08:57:37.226Z,12.60
2022-10-11T09:00:13.962Z,12.60
2022-10-11T09:03:07.616Z,12.60
2022-10-11T09:05:51.035Z,12.60
2022-10-11T09:08:33.497Z,12.60
2022-10-11T09:11:15.283Z,12.60
2022-10-11T09:14:02.433Z,12.70
2022-10-11T09:16:55.763Z,12.70
2022-10-11T09:19:40.581Z,12.70
2022-10-11T09:22:21.395Z,12.70
2022-10-11T09:25:26.453Z,12.70
2022-10-11T09:28:18.922Z,12.60
2022-10-11T09:30:49.089Z,12.60
2022-10-11T09:33:21.487Z,12.60
2022-10-11T09:35:50.477Z,12.60
2022-10-11T09:38:38.963Z,12.60
2022-10-11T09:41:17.480Z,12.60
2022-10-11T09:43:48.591Z,12.60
2022-10-11T09:46:21.400Z,12.70
2022-10-11T09:48:48.358Z,12.70
2022-10-11T09:51:18.236Z,12.70
2022-10-11T09:54:00.144Z,12.70
2022-10-11T09:56:29.875Z,12.80
2022-10-11T09:59:31.682Z,12.80
2022-10-11T10:02:14.200Z,12.80
2022-10-11T10:05:01.777Z,12.80
2022-10-11T10:07:30.530Z,12.80
2022-10-11T10:09:57.588Z,12.90
2022-10-11T10:12:29.519Z,12.90
2022-10-11T10:15:07.975Z,12.90
2022-10-11T10:17:35.935Z,13.00
2022-10-11T10:20:05.544Z,13.00
2022-10-11T10:22:34.433Z,13.10
2022-10-11T10:25:03.337Z,13.10
2022-10-11T10:27:30.752Z,13.20
2022-10-11T10:30:09.872Z,13.20
2022-10-11T10:33:01.426Z,13.30
2022-10-11T10:35:42.597Z,13.30
2022-10-11T10:38:32.566Z,13.30
2022-10-11T10:41:02.457Z,13.40
2022-10-11T10:43:34.589Z,13.50
2022-10-11T10:46:10.170Z,13.60
2022-10-11T10:52:49.677Z,13.60
2022-10-11T10:55:26.689Z,13.60
2022-10-11T10:58:09.553Z,13.70
2022-10-11T11:00:46.283Z,13.60
2022-10-11T11:03:26.331Z,13.60
2022-10-11T11:06:06.560Z,13.50
2022-10-11T11:08:56.166Z,13.50
2022-10-11T11:11:32.238Z,13.60
2022-10-11T11:14:09.177Z,13.50
2022-10-11T11:16:38.257Z,13.50
2022-10-11T11:19:19.767Z,13.40
2022-10-11T11:21:54.911Z,13.30
2022-10-11T11:24:47.232Z,13.30
2022-10-11T11:27:42.085Z,13.30
2022-10-11T11:30:17.337Z,13.40
2022-10-11T11:33:06.420Z,13.50
2022-10-11T11:35:53.858Z,13.50
2022-10-11T11:38:43.729Z,13.50
2022-10-11T11:41:33.721Z,13.50
2022-10-11T11:44:34.568Z,13.40
2022-10-11T11:47:11.172Z,13.40
2022-10-11T11:52:17.729Z,13.30
2022-10-11T11:54:49.351Z,13.30
2022-10-11T11:57:41.583Z,13.40
2022-10-11T12:00:19.303Z,13.30
2022-10-11T12:02:51.902Z,13.30
2022-10-11T12:05:22.376Z,13.20
2022-10-11T12:07:54.361Z,13.20
2022-10-11T12:10:31.866Z,13.10
2022-10-11T12:13:07.077Z,13.10
2022-10-11T12:15:34.531Z,13.10
2022-10-11T12:18:15.491Z,13.10
2022-10-11T12:20:43.425Z,13.10
2022-10-11T12:23:28.226Z,13.10
2022-10-11T12:26:29.165Z,13.20
2022-10-11T12:29:28.505Z,13.30
2022-10-11T12:31:58.855Z,13.30
2022-10-11T12:34:43.148Z,13.30
2022-10-11T12:37:22.385Z,13.40
2022-10-11T12:39:59.670Z,13.50
2022-10-11T12:42:27.794Z,13.50
2022-10-11T12:45:31.150Z,13.60
2022-10-11T12:48:19.137Z,13.70
2022-10-11T12:51:16.647Z,13.60
2022-10-11T12:54:36.835Z,13.70
2022-10-11T12:57:30.219Z,13.60
2022-10-11T13:00:12.004Z,13.70
2022-10-11T13:02:42.656Z,13.70
2022-10-11T13:05:20.006Z,13.80
2022-10-11T13:07:46.938Z,13.90
2022-10-11T13:10:22.085Z,13.80
2022-10-11T13:12:49.351Z,13.80
2022-10-11T13:15:18.753Z,13.80
2022-10-11T13:17:45.492Z,13.80
2022-10-11T13:20:26.130Z,13.80
2022-10-11T13:22:54.760Z,13.70
2022-10-11T13:25:25.028Z,13.80
2022-10-11T13:27:53.730Z,13.70
2022-10-11T13:30:31.756Z,13.70
2022-10-11T13:33:00.178Z,13.80
2022-10-11T13:35:34.169Z,13.80
2022-10-11T13:38:01.290Z,13.90
2022-10-11T13:40:28.867Z,13.90
2022-10-11T13:42:55.896Z,13.90
2022-10-11T13:45:27.584Z,14.00
2022-10-11T13:47:55.093Z,13.90
2022-10-11T13:50:30.308Z,14.00
2022-10-11T13:53:04.744Z,14.00
2022-10-11T13:55:41.939Z,14.00
2022-10-11T13:58:36.077Z,14.00
2022-10-11T14:01:05.826Z,14.00
2022-10-11T14:03:59.313Z,14.00
2022-10-11T14:06:58.325Z,14.00
2022-10-11T14:09:34.880Z,14.00
2022-10-11T14:12:39.604Z,14.00
2022-10-11T14:15:33.454Z,14.00
2022-10-11T14:18:01.224Z,14.00
2022-10-11T14:20:36.148Z,14.00
2022-10-11T14:23:02.859Z,14.00
2022-10-11T14:25:29.781Z,14.00
2022-10-11T14:27:56.729Z,13.90
2022-10-11T14:30:26.694Z,14.10
2022-10-11T14:32:56.942Z,14.10
2022-10-11T14:35:29.747Z,14.00
2022-10-11T14:37:56.557Z,14.10
2022-10-11T14:40:26.233Z,14.10
2022-10-11T14:42:53.276Z,14.10
2022-10-11T14:45:21.444Z,14.10
2022-10-11T14:47:48.657Z,14.10
2022-10-11T14:50:39.202Z,14.10
2022-10-11T14:53:07.528Z,14.10
2022-10-11T14:55:38.435Z,14.10
2022-10-11T14:58:09.500Z,14.10
2022-10-11T15:00:36.974Z,14.10
2022-10-11T15:03:07.025Z,14.10
2022-10-11T15:05:34.515Z,14.10
2022-10-11T15:08:02.427Z,14.20
2022-10-11T15:10:34.687Z,14.20
2022-10-11T15:13:01.691Z,14.20
2022-10-11T15:15:32.691Z,14.20
2022-10-11T15:18:00.035Z,14.10
2022-10-11T15:20:33.290Z,14.20
2022-10-11T15:23:00.735Z,14.10
2022-10-11T15:25:29.018Z,14.10
2022-10-11T15:27:56.301Z,14.00
2022-10-11T15:30:26.579Z,14.00
2022-10-11T15:32:53.672Z,14.00
2022-10-11T15:35:22.701Z,13.90
2022-10-11T15:37:52.985Z,13.90
2022-10-11T15:40:23.742Z,13.80
2022-10-11T15:42:52.038Z,13.80
2022-10-11T15:45:20.001Z,13.70
2022-10-11T15:47:47.492Z,13.70
2022-10-11T15:50:35.002Z,13.70
2022-10-11T15:53:07.512Z,13.60
2022-10-11T15:55:36.007Z,13.80
2022-10-11T15:58:02.726Z,13.70
2022-10-11T16:00:30.062Z,13.60
2022-10-11T16:02:58.489Z,13.60
2022-10-11T16:05:42.078Z,13.60
2022-10-11T16:08:14.889Z,13.60
2022-10-11T16:10:41.944Z,13.40
2022-10-11T16:13:09.393Z,13.50
2022-10-11T16:15:38.879Z,13.60
2022-10-11T16:18:06.768Z,13.50
2022-10-11T16:20:33.650Z,13.50
2022-10-11T16:23:00.375Z,13.50
2022-10-11T16:25:27.082Z,13.50
2022-10-11T16:27:53.836Z,13.50
2022-10-11T16:30:20.866Z,13.40
2022-10-11T16:32:47.749Z,13.40
2022-10-11T16:35:16.199Z,13.30
2022-10-11T16:37:43.165Z,13.30
2022-10-11T16:40:11.312Z,13.20
2022-10-11T16:42:38.936Z,13.10
2022-10-11T16:45:06.486Z,13.10
2022-10-11T16:47:33.172Z,13.10
2022-10-11T16:50:05.459Z,13.00
2022-10-11T16:52:35.039Z,13.00
2022-10-11T16:55:01.987Z,12.90
2022-10-11T16:57:28.757Z,12.90
2022-10-11T16:59:56.087Z,12.80
2022-10-11T17:02:29.885Z,12.70
2022-10-11T17:04:58.905Z,12.70
2022-10-11T17:07:25.744Z,12.60
2022-10-11T17:09:52.635Z,12.60
2022-10-11T17:12:22.023Z,12.60
2022-10-11T17:14:49.715Z,12.60
2022-10-11T17:17:17.445Z,12.60
2022-10-11T17:19:45.507Z,12.60
2022-10-11T17:22:14.638Z,12.70
2022-10-11T17:24:41.397Z,12.70
2022-10-11T17:27:08.697Z,12.70
2022-10-11T17:29:35.780Z,12.80
2022-10-11T17:32:02.692Z,12.80
2022-10-11T17:34:29.523Z,12.80
2022-10-11T17:36:56.239Z,12.80
2022-10-11T17:39:23.979Z,12.90
2022-10-11T17:41:51.312Z,12.90
2022-10-11T17:44:18.789Z,12.90
2022-10-11T17:46:46.092Z,13.00
2022-10-11T17:49:13.186Z,13.00
2022-10-11T17:51:40.698Z,13.00
2022-10-11T17:54:12.271Z,13.00
2022-10-11T17:56:43.011Z,13.00
2022-10-11T17:59:16.683Z,13.00
2022-10-11T18:01:43.396Z,13.00
2022-10-11T18:04:16.619Z,13.00
2022-10-11T18:06:45.034Z,13.00
2022-10-11T18:09:12.983Z,13.10
2022-10-11T18:11:39.728Z,13.00
2022-10-11T18:14:06.516Z,13.00
2022-10-11T18:16:34.053Z,13.00
2022-10-11T18:19:03.277Z,13.10
2022-10-11T18:21:34.530Z,13.10
2022-10-11T18:24:07.786Z,13.10
2022-10-11T18:26:34.575Z,13.10
2022-10-11T18:29:01.464Z,13.10
2022-10-11T18:31:30.484Z,13.20
2022-10-11T18:33:57.428Z,13.20
2022-10-11T18:36:27.241Z,13.10
2022-10-11T18:38:56.342Z,13.10
2022-10-11T18:41:24.563Z,13.10
2022-10-11T18:43:53.192Z,13.10
2022-10-11T18:46:20.666Z,13.00
2022-10-11T18:48:49.764Z,13.00
2022-10-11T18:51:19.137Z,13.00
2022-10-11T18:53:46.329Z,13.00
2022-10-11T18:56:13.871Z,13.00
2022-10-11T18:58:41.294Z,12.90
2022-10-11T19:01:12.289Z,12.90
2022-10-11T19:03:39.314Z,12.80
2022-10-11T19:06:08.888Z,12.80
2022-10-11T19:08:35.919Z,12.70
2022-10-11T19:11:10.369Z,12.70
2022-10-11T19:13:37.179Z,12.70
2022-10-11T19:16:14.851Z,12.60
2022-10-11T19:18:44.401Z,12.50
2022-10-11T19:21:12.739Z,12.50
2022-10-11T19:23:41.874Z,12.40
2022-10-11T19:26:22.067Z,12.40
2022-10-11T19:28:49.106Z,12.40
2022-10-11T19:31:16.998Z,12.40
2022-10-11T19:33:45.325Z,12.40
2022-10-11T19:36:16.326Z,12.40
2022-10-11T19:38:45.734Z,12.40
2022-10-11T19:41:13.131Z,12.50
2022-10-11T19:43:39.888Z,12.40
2022-10-11T19:46:13.197Z,12.40
2022-10-11T19:48:40.147Z,12.40
2022-10-11T19:51:09.929Z,12.40
2022-10-11T19:53:36.722Z,12.40
2022-10-11T19:56:09.305Z,12.40
2022-10-11T19:58:36.342Z,12.40
2022-10-11T20:01:06.146Z,12.40
2022-10-11T20:03:33.721Z,12.40
2022-10-11T20:06:01.681Z,12.40
2022-10-11T20:08:31.414Z,12.50
2022-10-11T20:11:03.661Z,12.50
2022-10-11T20:13:34.836Z,12.60
2022-10-11T20:16:11.048Z,12.60
2022-10-11T20:18:38.170Z,12.60
2022-10-11T20:21:19.802Z,12.70
2022-10-11T20:23:47.581Z,12.70
2022-10-11T20:26:16.927Z,12.80
2022-10-11T20:28:44.043Z,12.80
2022-10-11T20:31:22.246Z,12.80
2022-10-11T20:33:49.577Z,12.90
2022-10-11T20:36:18.684Z,12.90
2022-10-11T20:38:47.501Z,12.90
2022-10-11T20:41:23.449Z,12.90
2022-10-11T20:43:52.789Z,12.90
2022-10-11T20:46:27.976Z,12.90
2022-10-11T20:49:01.358Z,12.90
2022-10-11T20:51:29.781Z,12.90
2022-10-11T20:53:56.740Z,12.90
2022-10-11T20:56:23.907Z,12.90
2022-10-11T20:58:55.038Z,12.90
2022-10-11T21:01:26.686Z,13.00
2022-10-11T21:03:54.124Z,13.00
2022-10-11T21:06:20.807Z,13.00
2022-10-11T21:08:47.519Z,12.90
2022-10-11T21:11:14.710Z,12.90
2022-10-11T21:13:41.491Z,12.90
2022-10-11T21:16:12.345Z,13.10
2022-10-11T21:18:39.547Z,12.90
2022-10-11T21:21:13.994Z,12.90
2022-10-11T21:23:41.156Z,12.90
2022-10-11T21:26:13.240Z,12.90
2022-10-11T21:28:41.089Z,12.90
2022-10-11T21:31:13.626Z,12.90
2022-10-11T21:33:41.240Z,12.90
2022-10-11T21:36:13.316Z,12.90
2022-10-11T21:38:40.351Z,12.90
2022-10-11T21:41:15.084Z,12.90
2022-10-11T21:43:41.873Z,12.90
2022-10-11T21:46:14.227Z,12.90
2022-10-11T21:48:40.919Z,12.90
2022-10-11T21:53:42.730Z,12.90
2022-10-11T21:56:09.454Z,12.90
2022-10-11T21:58:36.227Z,12.90
2022-10-11T22:01:03.278Z,12.90
2022-10-11T22:03:30.024Z,12.90
2022-10-11T22:05:56.795Z,12.90
2022-10-11T22:08:23.738Z,12.90
2022-10-11T22:10:56.164Z,12.90
2022-10-11T22:13:23.963Z,12.90
2022-10-11T22:15:50.683Z,12.90
2022-10-11T22:18:17.390Z,12.80
2022-10-11T22:20:44.152Z,12.80
2022-10-11T22:23:11.600Z,12.80
2022-10-11T22:25:38.998Z,12.70
2022-10-11T22:28:06.497Z,12.80
2022-10-11T22:30:33.563Z,12.70
2022-10-11T22:33:00.586Z,12.70
2022-10-11T22:35:27.554Z,12.70
2022-10-11T22:37:54.243Z,12.70
2022-10-11T22:40:21.026Z,12.70
2022-10-11T22:42:47.826Z,12.70
2022-10-11T22:45:14.995Z,12.70
2022-10-11T22:47:41.717Z,12.70
2022-10-11T22:50:08.985Z,12.70
2022-10-11T22:52:35.777Z,12.70
2022-10-11T22:55:02.457Z,12.70
2022-10-11T22:57:29.595Z,12.70
2022-10-11T22:59:56.333Z,12.70
2022-10-11T23:02:23.025Z,12.60
2022-10-11T23:04:49.830Z,12.70
2022-10-11T23:07:16.483Z,12.70
2022-10-11T23:09:43.127Z,12.60
2022-10-11T23:12:09.891Z,12.60
2022-10-11T23:14:36.561Z,12.60
2022-10-11T23:17:03.223Z,12.60
2022-10-11T23:19:29.881Z,12.60
2022-10-11T23:21:56.542Z,12.60
2022-10-11T23:24:23.359Z,12.60
2022-10-11T23:26:50.003Z,12.60
2022-10-11T23:29:16.777Z,12.60
2022-10-11T23:31:43.452Z,12.60
2022-10-11T23:34:10.423Z,12.60
2022-10-11T23:36:37.136Z,12.60
2022-10-11T23:39:03.917Z,12.70
2022-10-11T23:41:30.801Z,12.70
2022-10-11T23:43:58.245Z,12.70
2022-10-11T23:46:25.008Z,12.70
2022-10-11T23:48:51.677Z,12.70
2022-10-11T23:51:18.525Z,12.70
2022-10-11T23:53:45.231Z,12.80
2022-10-11T23:56:12.027Z,12.80
2022-10-11T23:58:39.025Z,12.80
